createdAt,value
2022-12-26T00:00:31.716Z,26.79
2022-12-26T00:01:31.617Z,29.92
2022-12-26T00:02:31.710Z,29.99
2022-12-26T00:03:31.702Z,30.25
2022-12-26T00:04:51.274Z,31.04
2022-12-26T00:05:32.595Z,31.34
2022-12-26T00:06:31.736Z,31.51
2022-12-26T00:07:31.635Z,31.71
2022-12-26T00:08:31.573Z,31.36
2022-12-26T00:09:31.612Z,29.44
2022-12-26T00:10:31.538Z,31.26
2022-12-26T00:11:31.591Z,33.22
2022-12-26T00:12:31.835Z,32.67
2022-12-26T00:13:39.913Z,32.65
2022-12-26T00:14:32.703Z,32.86
2022-12-26T00:15:31.508Z,32.80
2022-12-26T00:16:31.571Z,33.19
2022-12-26T00:17:31.492Z,33.00
2022-12-26T00:18:31.517Z,33.53
2022-12-26T00:19:31.462Z,31.94
2022-12-26T00:20:31.469Z,32.29
2022-12-26T00:21:31.467Z,32.33
2022-12-26T00:22:31.462Z,33.17
2022-12-26T00:23:31.416Z,32.31
2022-12-26T00:24:31.400Z,28.82
2022-12-26T00:25:31.452Z,32.54
2022-12-26T00:26:31.415Z,32.47
2022-12-26T00:27:31.366Z,31.64
2022-12-26T00:28:31.360Z,31.11
2022-12-26T00:29:31.365Z,30.93
2022-12-26T00:30:31.335Z,30.67
2022-12-26T00:31:31.321Z,31.76
2022-12-26T00:32:31.291Z,32.16
2022-12-26T00:33:31.297Z,30.85
2022-12-26T00:34:31.277Z,31.64
2022-12-26T00:35:31.260Z,30.68
2022-12-26T00:36:31.276Z,30.84
2022-12-26T00:37:31.236Z,32.95
2022-12-26T00:38:31.259Z,28.59
2022-12-26T00:39:31.217Z,32.42
2022-12-26T00:40:31.243Z,34.28
2022-12-26T00:41:31.199Z,30.18
2022-12-26T00:42:31.215Z,30.21
2022-12-26T00:43:31.240Z,31.98
2022-12-26T00:44:31.192Z,33.49
2022-12-26T00:45:31.259Z,31.20
2022-12-26T00:46:31.252Z,29.51
2022-12-26T00:47:31.129Z,31.18
2022-12-26T00:48:31.305Z,31.96
2022-12-26T00:50:11.740Z,29.10
2022-12-26T00:50:34.841Z,29.47
2022-12-26T00:51:31.209Z,29.46
2022-12-26T00:52:31.310Z,29.99
2022-12-26T00:53:31.074Z,30.86
2022-12-26T00:54:31.094Z,29.53
2022-12-26T00:55:31.063Z,32.38
2022-12-26T00:56:31.123Z,31.56
2022-12-26T00:57:31.042Z,31.88
2022-12-26T00:58:31.041Z,31.53
2022-12-26T00:59:31.023Z,31.55
2022-12-26T01:00:31.077Z,31.69
2022-12-26T01:01:31.307Z,32.37
2022-12-26T01:02:31.152Z,29.27
2022-12-26T01:03:31.162Z,32.08
2022-12-26T01:04:30.997Z,33.77
2022-12-26T01:05:30.936Z,30.87
2022-12-26T01:06:30.985Z,29.81
2022-12-26T01:07:30.969Z,32.20
2022-12-26T01:08:30.952Z,31.02
2022-12-26T01:09:30.911Z,31.33
2022-12-26T01:10:30.951Z,29.61
2022-12-26T01:11:30.886Z,29.80
2022-12-26T01:12:30.921Z,29.93
2022-12-26T01:13:30.937Z,31.57
2022-12-26T01:14:30.894Z,29.94
2022-12-26T01:15:30.887Z,29.99
2022-12-26T01:16:30.962Z,30.29
2022-12-26T01:17:30.855Z,31.88
2022-12-26T01:18:30.976Z,31.11
2022-12-26T01:19:31.123Z,30.52
2022-12-26T01:20:30.940Z,32.02
2022-12-26T01:21:30.862Z,30.27
2022-12-26T01:22:30.888Z,30.70
2022-12-26T01:23:30.810Z,29.50
2022-12-26T01:24:30.875Z,30.47
2022-12-26T01:25:30.843Z,30.27
2022-12-26T01:26:30.934Z,29.04
2022-12-26T01:27:30.819Z,30.52
2022-12-26T01:28:30.816Z,31.44
2022-12-26T01:29:30.789Z,32.51
2022-12-26T01:30:30.820Z,30.97
2022-12-26T01:31:30.825Z,30.56
2022-12-26T01:32:30.801Z,30.86
2022-12-26T01:33:30.770Z,30.58
2022-12-26T01:34:30.825Z,30.75
2022-12-26T01:35:30.747Z,29.16
2022-12-26T01:36:30.791Z,30.18
2022-12-26T01:37:30.750Z,31.54
2022-12-26T01:38:30.943Z,31.32
2022-12-26T01:39:30.730Z,30.44
2022-12-26T01:40:30.919Z,30.38
2022-12-26T01:41:30.734Z,31.12
2022-12-26T01:42:30.818Z,32.03
2022-12-26T01:43:30.734Z,28.97
2022-12-26T01:44:30.768Z,29.10
2022-12-26T01:45:30.804Z,31.21
2022-12-26T01:46:30.796Z,29.20
2022-12-26T01:47:30.727Z,28.99
2022-12-26T01:48:30.773Z,29.95
2022-12-26T01:49:30.828Z,30.48
2022-12-26T01:50:30.743Z,31.90
2022-12-26T01:51:30.756Z,28.08
2022-12-26T01:52:30.850Z,30.73
2022-12-26T01:53:30.877Z,29.37
2022-12-26T01:54:39.122Z,30.91
2022-12-26T01:55:31.842Z,31.24
2022-12-26T01:56:30.704Z,31.32
2022-12-26T01:57:30.684Z,30.03
2022-12-26T01:58:30.677Z,30.00
2022-12-26T01:59:30.684Z,30.45
2022-12-26T02:00:30.682Z,32.59
2022-12-26T02:01:30.861Z,33.26
2022-12-26T02:02:30.716Z,30.23
2022-12-26T02:03:30.920Z,32.54
2022-12-26T02:04:30.675Z,32.29
2022-12-26T02:05:30.645Z,30.86
2022-12-26T02:06:30.619Z,31.26
2022-12-26T02:07:30.899Z,29.94
2022-12-26T02:08:30.671Z,31.57
2022-12-26T02:09:30.631Z,28.32
2022-12-26T02:10:30.646Z,28.63
2022-12-26T02:11:30.708Z,31.87
2022-12-26T02:12:35.175Z,28.93
2022-12-26T02:13:31.637Z,29.22
2022-12-26T02:14:30.590Z,29.66
2022-12-26T02:15:30.633Z,29.70
2022-12-26T02:16:30.726Z,29.55
2022-12-26T02:17:30.641Z,32.11
2022-12-26T02:18:30.591Z,30.09
2022-12-26T02:19:30.622Z,28.02
2022-12-26T02:20:30.634Z,30.44
2022-12-26T02:21:30.614Z,31.12
2022-12-26T02:22:30.578Z,31.40
2022-12-26T02:23:30.583Z,31.05
2022-12-26T02:24:30.569Z,31.74
2022-12-26T02:25:30.618Z,31.09
2022-12-26T02:26:30.616Z,31.51
2022-12-26T02:27:30.596Z,30.10
2022-12-26T02:28:32.880Z,29.83
2022-12-26T02:29:30.624Z,30.04
2022-12-26T02:30:30.581Z,29.89
2022-12-26T02:31:30.690Z,30.07
2022-12-26T02:32:30.560Z,32.13
2022-12-26T02:33:30.585Z,31.82
2022-12-26T02:34:30.565Z,29.78
2022-12-26T02:35:30.579Z,32.58
2022-12-26T02:36:30.605Z,30.18
2022-12-26T02:37:30.595Z,31.54
2022-12-26T02:38:30.792Z,30.44
2022-12-26T02:39:43.896Z,29.86
2022-12-26T02:40:31.602Z,30.31
2022-12-26T02:41:30.727Z,30.78
2022-12-26T02:42:30.627Z,31.63
2022-12-26T02:43:30.552Z,30.13
2022-12-26T02:44:30.602Z,31.06
2022-12-26T02:45:30.575Z,33.15
2022-12-26T02:46:30.688Z,32.68
2022-12-26T02:47:30.671Z,31.47
2022-12-26T02:48:30.585Z,27.91
2022-12-26T02:49:30.550Z,29.64
2022-12-26T02:50:30.731Z,32.39
2022-12-26T02:51:30.537Z,30.97
2022-12-26T02:52:30.585Z,33.81
2022-12-26T02:53:30.547Z,29.94
2022-12-26T02:54:30.597Z,30.02
2022-12-26T02:55:30.564Z,31.28
2022-12-26T02:56:30.580Z,29.72
2022-12-26T02:57:30.539Z,30.09
2022-12-26T02:58:30.590Z,28.84
2022-12-26T02:59:55.424Z,28.23
2022-12-26T03:00:31.575Z,28.49
2022-12-26T03:01:30.617Z,28.68
2022-12-26T03:02:30.803Z,28.77
2022-12-26T03:03:30.613Z,29.54
2022-12-26T03:04:30.584Z,31.17
2022-12-26T03:05:30.575Z,30.12
2022-12-26T03:06:30.559Z,30.57
2022-12-26T03:07:30.502Z,28.23
2022-12-26T03:08:30.715Z,30.25
2022-12-26T03:09:30.504Z,29.82
2022-12-26T03:10:30.678Z,28.97
2022-12-26T03:11:30.515Z,31.12
2022-12-26T03:12:30.540Z,30.77
2022-12-26T03:13:30.474Z,28.77
2022-12-26T03:14:30.546Z,29.61
2022-12-26T03:15:30.495Z,31.57
2022-12-26T03:16:30.601Z,29.11
2022-12-26T03:17:30.534Z,30.78
2022-12-26T03:18:58.244Z,29.57
2022-12-26T03:19:31.560Z,29.91
2022-12-26T03:20:30.471Z,29.82
2022-12-26T03:21:30.515Z,29.86
2022-12-26T03:22:30.430Z,30.50
2022-12-26T03:23:30.469Z,32.22
2022-12-26T03:24:30.441Z,29.41
2022-12-26T03:25:30.448Z,27.51
2022-12-26T03:26:30.426Z,27.96
2022-12-26T03:27:30.404Z,29.67
2022-12-26T03:28:30.395Z,29.06
2022-12-26T03:29:30.427Z,29.24
2022-12-26T03:30:30.445Z,30.35
2022-12-26T03:31:30.457Z,28.56
2022-12-26T03:32:30.372Z,28.57
2022-12-26T03:33:30.412Z,28.73
2022-12-26T03:34:30.409Z,29.79
2022-12-26T03:35:30.499Z,32.10
2022-12-26T03:36:30.358Z,31.20
2022-12-26T03:37:47.497Z,31.25
2022-12-26T03:38:31.452Z,31.47
2022-12-26T03:39:30.368Z,31.31
2022-12-26T03:40:30.390Z,30.49
2022-12-26T03:41:30.355Z,31.45
2022-12-26T03:42:30.394Z,30.82
2022-12-26T03:43:30.367Z,31.87
2022-12-26T03:44:30.389Z,30.05
2022-12-26T03:45:30.366Z,30.95
2022-12-26T03:46:30.470Z,30.54
2022-12-26T03:47:30.398Z,28.93
2022-12-26T03:48:30.400Z,29.72
2022-12-26T03:49:30.375Z,27.74
2022-12-26T03:50:30.419Z,27.82
2022-12-26T03:51:30.367Z,29.88
2022-12-26T03:52:30.413Z,31.51
2022-12-26T03:53:30.395Z,28.51
2022-12-26T03:54:30.428Z,31.63
2022-12-26T03:55:30.392Z,28.84
2022-12-26T03:56:32.721Z,27.57
2022-12-26T03:57:30.569Z,30.18
2022-12-26T03:58:30.679Z,31.07
2022-12-26T03:59:30.721Z,30.80
2022-12-26T04:00:30.573Z,29.69
2022-12-26T04:01:30.662Z,30.05
2022-12-26T04:02:30.785Z,29.31
2022-12-26T04:03:30.665Z,28.95
2022-12-26T04:04:30.576Z,30.36
2022-12-26T04:05:30.581Z,28.69
2022-12-26T04:06:30.570Z,29.94
2022-12-26T04:07:30.594Z,26.46
2022-12-26T04:08:30.603Z,28.43
2022-12-26T04:09:30.573Z,30.90
2022-12-26T04:10:30.545Z,30.87
2022-12-26T04:11:30.582Z,29.27
2022-12-26T04:12:30.607Z,29.70
2022-12-26T04:13:30.736Z,31.26
2022-12-26T04:14:30.539Z,25.79
2022-12-26T04:15:30.690Z,26.75
2022-12-26T04:16:30.556Z,26.63
2022-12-26T04:17:30.846Z,30.64
2022-12-26T04:18:30.532Z,26.60
2022-12-26T04:19:30.549Z,25.65
2022-12-26T04:20:30.563Z,29.95
2022-12-26T04:21:30.586Z,31.03
2022-12-26T04:22:30.526Z,30.34
2022-12-26T04:23:30.581Z,28.26
2022-12-26T04:24:30.530Z,29.59
2022-12-26T04:25:48.780Z,29.68
2022-12-26T04:26:31.539Z,29.89
2022-12-26T04:27:30.515Z,30.05
2022-12-26T04:28:30.708Z,29.07
2022-12-26T04:29:30.513Z,30.92
2022-12-26T04:30:30.526Z,31.30
2022-12-26T04:31:30.532Z,29.31
2022-12-26T04:32:30.678Z,29.92
2022-12-26T04:33:30.512Z,30.56
2022-12-26T04:34:30.525Z,29.31
2022-12-26T04:35:30.514Z,28.56
2022-12-26T04:36:30.469Z,28.92
2022-12-26T04:37:30.437Z,30.63
2022-12-26T04:38:30.544Z,28.84
2022-12-26T04:39:30.439Z,27.56
2022-12-26T04:40:30.448Z,30.00
2022-12-26T04:41:30.441Z,28.66
2022-12-26T04:42:30.448Z,30.38
2022-12-26T04:43:49.153Z,29.89
2022-12-26T04:44:31.444Z,30.17
2022-12-26T04:45:30.406Z,29.97
2022-12-26T04:46:30.508Z,30.24
2022-12-26T04:47:30.447Z,29.21
2022-12-26T04:48:30.430Z,29.63
2022-12-26T04:49:30.427Z,29.50
2022-12-26T04:50:30.419Z,31.02
2022-12-26T04:51:30.366Z,30.33
2022-12-26T04:52:30.547Z,25.06
2022-12-26T04:53:30.377Z,28.40
2022-12-26T04:54:30.601Z,29.77
2022-12-26T04:55:30.356Z,28.06
2022-12-26T04:56:30.384Z,31.12
2022-12-26T04:57:30.366Z,27.99
2022-12-26T04:58:30.385Z,29.93
2022-12-26T04:59:30.366Z,27.61
2022-12-26T05:00:30.399Z,31.03
2022-12-26T05:01:30.556Z,34.46
2022-12-26T05:02:30.517Z,30.83
2022-12-26T05:03:30.427Z,29.94
2022-12-26T05:04:30.387Z,31.42
2022-12-26T05:05:30.411Z,32.74
2022-12-26T05:06:30.420Z,30.47
2022-12-26T05:07:30.439Z,30.76
2022-12-26T05:08:30.425Z,32.55
2022-12-26T05:09:30.641Z,32.99
2022-12-26T05:10:30.437Z,31.87
2022-12-26T05:11:30.437Z,32.60
2022-12-26T05:12:30.419Z,31.92
2022-12-26T05:13:30.450Z,30.60
2022-12-26T05:14:30.464Z,29.68
2022-12-26T05:15:30.556Z,32.12
2022-12-26T05:16:30.536Z,29.97
2022-12-26T05:17:30.486Z,28.11
2022-12-26T05:18:30.456Z,32.81
2022-12-26T05:19:30.446Z,30.55
2022-12-26T05:20:30.485Z,32.77
2022-12-26T05:21:30.483Z,30.09
2022-12-26T05:22:30.455Z,32.63
2022-12-26T05:23:30.451Z,32.99
2022-12-26T05:24:30.494Z,29.54
2022-12-26T05:25:30.461Z,29.93
2022-12-26T05:26:30.467Z,31.44
2022-12-26T05:27:31.567Z,32.34
2022-12-26T05:28:30.478Z,30.67
2022-12-26T05:29:30.472Z,32.01
2022-12-26T05:30:30.489Z,30.16
2022-12-26T05:31:35.403Z,29.61
2022-12-26T05:32:31.510Z,29.83
2022-12-26T05:33:30.498Z,29.75
2022-12-26T05:34:30.568Z,31.09
2022-12-26T05:35:30.541Z,32.14
2022-12-26T05:36:30.524Z,29.87
2022-12-26T05:37:30.503Z,29.89
2022-12-26T05:38:30.504Z,30.66
2022-12-26T05:39:30.498Z,31.19
2022-12-26T05:40:30.548Z,31.00
2022-12-26T05:41:30.522Z,31.14
2022-12-26T05:42:30.512Z,30.34
2022-12-26T05:43:30.528Z,29.17
2022-12-26T05:44:30.547Z,30.25
2022-12-26T05:45:30.523Z,30.07
2022-12-26T05:46:30.718Z,30.11
2022-12-26T05:47:30.597Z,30.86
2022-12-26T05:48:30.573Z,30.94
2022-12-26T05:49:30.507Z,29.78
2022-12-26T05:50:30.535Z,29.72
2022-12-26T05:51:30.523Z,31.22
2022-12-26T05:52:30.585Z,30.80
2022-12-26T05:53:30.529Z,28.87
2022-12-26T05:54:30.547Z,30.92
2022-12-26T05:55:30.523Z,29.14
2022-12-26T05:56:30.561Z,32.01
2022-12-26T05:57:30.535Z,30.13
2022-12-26T05:58:30.523Z,32.39
2022-12-26T05:59:30.539Z,29.13
2022-12-26T06:00:30.556Z,32.02
2022-12-26T06:01:30.920Z,31.06
2022-12-26T06:02:30.779Z,31.40
2022-12-26T06:03:30.648Z,33.88
2022-12-26T06:04:30.580Z,32.23
2022-12-26T06:05:30.518Z,31.22
2022-12-26T06:06:30.577Z,34.48
2022-12-26T06:07:30.549Z,38.08
2022-12-26T06:08:30.560Z,33.41
2022-12-26T06:09:30.538Z,34.66
2022-12-26T06:10:30.558Z,35.06
2022-12-26T06:11:30.533Z,33.27
2022-12-26T06:12:30.529Z,34.32
2022-12-26T06:13:30.529Z,35.83
2022-12-26T06:14:30.539Z,35.92
2022-12-26T06:15:30.525Z,37.89
2022-12-26T06:16:30.611Z,36.17
2022-12-26T06:17:30.526Z,35.03
2022-12-26T06:18:30.520Z,34.93
2022-12-26T06:19:30.471Z,33.41
2022-12-26T06:20:30.497Z,36.63
2022-12-26T06:21:30.466Z,35.59
2022-12-26T06:22:30.486Z,35.50
2022-12-26T06:23:30.540Z,34.38
2022-12-26T06:24:30.661Z,34.12
2022-12-26T06:25:30.467Z,30.91
2022-12-26T06:26:30.481Z,34.49
2022-12-26T06:27:30.386Z,34.06
2022-12-26T06:28:30.419Z,30.47
2022-12-26T06:29:30.415Z,32.86
2022-12-26T06:30:30.353Z,31.66
2022-12-26T06:31:30.361Z,33.94
2022-12-26T06:32:30.345Z,34.78
2022-12-26T06:33:30.355Z,32.47
2022-12-26T06:34:30.363Z,31.60
2022-12-26T06:35:30.253Z,31.95
2022-12-26T06:36:30.277Z,33.14
2022-12-26T06:37:30.268Z,33.98
2022-12-26T06:38:30.267Z,32.02
2022-12-26T06:39:30.231Z,30.76
2022-12-26T06:40:30.214Z,32.26
2022-12-26T06:41:30.315Z,34.58
2022-12-26T06:42:30.182Z,32.23
2022-12-26T06:43:30.275Z,35.54
2022-12-26T06:44:30.151Z,31.37
2022-12-26T06:45:30.112Z,30.72
2022-12-26T06:46:30.150Z,33.59
2022-12-26T06:47:30.255Z,31.97
2022-12-26T06:48:30.090Z,31.22
2022-12-26T06:49:32.932Z,28.46
2022-12-26T06:50:30.043Z,34.39
2022-12-26T06:51:30.234Z,30.07
2022-12-26T06:52:29.999Z,29.86
2022-12-26T06:53:29.973Z,30.22
2022-12-26T06:54:30.178Z,30.24
2022-12-26T06:55:30.196Z,30.69
2022-12-26T06:56:29.956Z,32.07
2022-12-26T06:57:29.926Z,28.92
2022-12-26T06:58:29.914Z,32.64
2022-12-26T06:59:29.915Z,33.16
2022-12-26T07:00:30.103Z,32.24
2022-12-26T07:01:30.001Z,32.34
2022-12-26T07:02:30.014Z,30.07
2022-12-26T07:03:36.877Z,29.45
2022-12-26T07:04:29.845Z,29.99
2022-12-26T07:05:29.854Z,30.78
2022-12-26T07:06:29.802Z,30.84
2022-12-26T07:07:29.846Z,30.66
2022-12-26T07:08:29.787Z,33.00
2022-12-26T07:09:33.662Z,31.36
2022-12-26T07:10:29.824Z,31.60
2022-12-26T07:11:29.808Z,31.60
2022-12-26T07:12:29.739Z,29.65
2022-12-26T07:13:29.738Z,28.21
2022-12-26T07:14:29.679Z,30.00
2022-12-26T07:15:29.716Z,29.70
2022-12-26T07:16:29.728Z,29.97
2022-12-26T07:17:29.679Z,26.38
2022-12-26T07:18:29.635Z,31.22
2022-12-26T07:19:29.626Z,29.46
2022-12-26T07:20:29.643Z,28.74
2022-12-26T07:21:33.451Z,27.64
2022-12-26T07:22:30.549Z,27.99
2022-12-26T07:23:29.562Z,28.81
2022-12-26T07:24:29.543Z,28.49
2022-12-26T07:25:29.556Z,29.27
2022-12-26T07:26:29.512Z,32.45
2022-12-26T07:27:29.499Z,29.31
2022-12-26T07:28:29.480Z,27.70
2022-12-26T07:29:29.424Z,28.88
2022-12-26T07:30:29.501Z,28.20
2022-12-26T07:31:29.477Z,28.98
2022-12-26T07:32:29.419Z,28.59
2022-12-26T07:33:29.378Z,26.04
2022-12-26T07:34:31.585Z,28.83
2022-12-26T07:35:29.600Z,30.10
2022-12-26T07:36:29.550Z,31.26
2022-12-26T07:37:29.557Z,28.70
2022-12-26T07:38:29.509Z,27.35
2022-12-26T07:39:29.515Z,29.87
2022-12-26T07:40:29.590Z,28.91
2022-12-26T07:41:29.492Z,31.71
2022-12-26T07:42:29.436Z,27.99
2022-12-26T07:43:29.449Z,28.23
2022-12-26T07:44:29.369Z,28.78
2022-12-26T07:45:29.452Z,28.71
2022-12-26T07:46:29.426Z,26.65
2022-12-26T07:47:29.331Z,30.18
2022-12-26T07:48:29.271Z,28.91
2022-12-26T07:49:29.317Z,28.63
2022-12-26T07:50:29.294Z,28.94
2022-12-26T07:51:29.240Z,29.13
2022-12-26T07:52:29.197Z,29.84
2022-12-26T07:53:29.262Z,27.10
2022-12-26T07:54:29.170Z,27.49
2022-12-26T07:55:29.168Z,29.50
2022-12-26T07:56:29.091Z,29.76
2022-12-26T07:58:30.096Z,31.80
2022-12-26T07:59:29.036Z,31.76
2022-12-26T08:00:29.041Z,31.36
2022-12-26T08:01:29.156Z,31.50
2022-12-26T08:02:29.230Z,29.43
2022-12-26T08:03:29.057Z,32.01
2022-12-26T08:04:28.928Z,28.62
2022-12-26T08:05:28.938Z,31.39
2022-12-26T08:06:28.906Z,30.89
2022-12-26T08:07:28.874Z,27.01
2022-12-26T08:08:28.888Z,29.73
2022-12-26T08:09:28.837Z,28.16
2022-12-26T08:10:28.840Z,32.15
2022-12-26T08:11:28.779Z,30.07
2022-12-26T08:12:28.794Z,28.96
2022-12-26T08:13:28.724Z,26.73
2022-12-26T08:14:28.730Z,27.81
2022-12-26T08:15:28.703Z,29.20
2022-12-26T08:16:28.741Z,31.32
2022-12-26T08:17:28.652Z,27.52
2022-12-26T08:18:28.643Z,26.90
2022-12-26T08:19:28.609Z,28.27
2022-12-26T08:20:28.618Z,27.26
2022-12-26T08:21:28.574Z,26.70
2022-12-26T08:22:28.572Z,27.17
2022-12-26T08:23:28.542Z,27.42
2022-12-26T08:24:28.554Z,28.43
2022-12-26T08:25:28.508Z,30.27
2022-12-26T08:26:28.492Z,29.58
2022-12-26T08:27:28.479Z,30.82
2022-12-26T08:28:28.470Z,30.49
2022-12-26T08:29:28.424Z,29.78
2022-12-26T08:30:28.429Z,27.26
2022-12-26T08:31:28.388Z,26.56
2022-12-26T08:32:28.417Z,26.78
2022-12-26T08:33:28.361Z,26.65
2022-12-26T08:34:28.339Z,25.64
2022-12-26T08:35:28.345Z,29.12
2022-12-26T08:36:28.323Z,29.25
2022-12-26T08:37:28.273Z,27.89
2022-12-26T08:38:31.948Z,26.96
2022-12-26T08:39:29.313Z,27.21
2022-12-26T08:40:42.629Z,27.40
2022-12-26T08:41:29.298Z,27.28
2022-12-26T08:42:28.185Z,27.23
2022-12-26T08:44:10.025Z,28.38
2022-12-26T08:44:29.461Z,27.19
2022-12-26T08:45:28.158Z,27.51
2022-12-26T08:46:28.152Z,28.13
2022-12-26T08:47:28.134Z,26.62
2022-12-26T08:48:28.135Z,27.17
2022-12-26T08:49:28.109Z,26.40
2022-12-26T08:50:28.097Z,25.57
2022-12-26T08:51:28.071Z,28.68
2022-12-26T08:52:28.064Z,26.12
2022-12-26T08:53:28.073Z,27.36
2022-12-26T08:54:28.086Z,28.73
2022-12-26T08:55:28.017Z,26.84
2022-12-26T08:56:28.028Z,26.64
2022-12-26T08:57:27.996Z,26.99
2022-12-26T08:58:28.049Z,28.36
2022-12-26T08:59:27.972Z,29.28
2022-12-26T09:00:27.996Z,28.04
2022-12-26T09:01:28.077Z,27.38
2022-12-26T09:02:28.081Z,30.77
2022-12-26T09:03:27.986Z,27.39
2022-12-26T09:04:27.931Z,31.20
2022-12-26T09:05:27.907Z,28.38
2022-12-26T09:06:27.906Z,28.87
2022-12-26T09:07:27.862Z,28.46
2022-12-26T09:08:27.863Z,30.21
2022-12-26T09:09:27.880Z,29.41
2022-12-26T09:10:27.931Z,29.45
2022-12-26T09:11:27.847Z,28.21
2022-12-26T09:12:27.827Z,32.52
2022-12-26T09:13:27.794Z,31.29
2022-12-26T09:14:27.822Z,32.26
2022-12-26T09:15:27.762Z,30.67
2022-12-26T09:16:31.499Z,25.89
2022-12-26T09:17:28.799Z,26.26
2022-12-26T09:18:27.754Z,26.68
2022-12-26T09:19:27.741Z,27.51
2022-12-26T09:20:27.717Z,31.43
2022-12-26T09:21:27.719Z,34.81
2022-12-26T09:22:33.402Z,34.28
2022-12-26T09:23:28.705Z,34.44
2022-12-26T09:24:27.673Z,32.63
2022-12-26T09:25:27.697Z,33.83
2022-12-26T09:26:27.654Z,31.31
2022-12-26T09:27:27.641Z,30.36
2022-12-26T09:28:27.635Z,30.73
2022-12-26T09:29:27.599Z,28.23
2022-12-26T09:30:27.597Z,29.09
2022-12-26T09:31:27.717Z,27.59
2022-12-26T09:32:27.583Z,27.66
2022-12-26T09:33:27.545Z,26.48
2022-12-26T09:34:27.517Z,27.26
2022-12-26T09:35:27.583Z,25.00
2022-12-26T09:36:27.510Z,30.36
2022-12-26T09:37:27.515Z,32.22
2022-12-26T09:38:27.493Z,31.66
2022-12-26T09:39:27.512Z,33.29
2022-12-26T09:40:27.452Z,31.19
2022-12-26T09:41:27.474Z,30.31
2022-12-26T09:42:27.413Z,31.20
2022-12-26T09:43:27.460Z,32.82
2022-12-26T09:44:27.424Z,32.43
2022-12-26T09:45:27.412Z,29.34
2022-12-26T09:46:27.401Z,31.27
2022-12-26T09:47:27.408Z,32.50
2022-12-26T09:48:27.359Z,34.30
2022-12-26T09:49:27.389Z,30.65
2022-12-26T09:50:27.336Z,28.79
2022-12-26T09:51:27.360Z,30.16
2022-12-26T09:52:27.336Z,27.13
2022-12-26T09:53:27.350Z,27.62
2022-12-26T09:54:27.315Z,31.13
2022-12-26T09:55:27.300Z,29.73
2022-12-26T09:57:28.303Z,30.99
2022-12-26T09:58:27.306Z,30.99
2022-12-26T09:59:27.278Z,30.85
2022-12-26T10:00:27.234Z,30.90
2022-12-26T10:01:27.280Z,29.66
2022-12-26T10:02:27.469Z,27.85
2022-12-26T10:03:27.207Z,30.37
2022-12-26T10:04:29.969Z,30.12
2022-12-26T10:05:27.200Z,32.50
2022-12-26T10:06:27.200Z,28.13
2022-12-26T10:07:27.189Z,30.26
2022-12-26T10:08:27.139Z,32.29
2022-12-26T10:09:27.161Z,31.91
2022-12-26T10:10:27.153Z,29.74
2022-12-26T10:11:27.149Z,33.95
2022-12-26T10:12:27.127Z,34.56
2022-12-26T10:13:27.159Z,33.86
2022-12-26T10:14:27.130Z,31.37
2022-12-26T10:15:27.131Z,32.17
2022-12-26T10:16:27.089Z,36.71
2022-12-26T10:17:27.121Z,33.16
2022-12-26T10:18:27.094Z,34.77
2022-12-26T10:19:32.242Z,35.37
2022-12-26T10:20:28.117Z,35.92
2022-12-26T10:21:27.069Z,35.68
2022-12-26T10:22:27.085Z,36.07
2022-12-26T10:23:27.059Z,38.72
2022-12-26T10:24:27.087Z,38.69
2022-12-26T10:25:32.020Z,38.23
2022-12-26T10:26:28.078Z,38.50
2022-12-26T10:27:27.045Z,39.15
2022-12-26T10:28:27.063Z,38.85
2022-12-26T10:29:26.999Z,39.92
2022-12-26T10:30:27.008Z,38.54
2022-12-26T10:31:27.091Z,41.16
2022-12-26T10:32:28.241Z,39.02
2022-12-26T10:33:26.949Z,39.32
2022-12-26T10:34:26.968Z,43.68
2022-12-26T10:35:26.931Z,40.70
2022-12-26T10:36:26.974Z,38.07
2022-12-26T10:37:26.940Z,43.57
2022-12-26T10:38:27.872Z,40.39
2022-12-26T10:39:26.899Z,45.96
2022-12-26T10:40:26.917Z,42.32
2022-12-26T10:41:26.834Z,42.46
2022-12-26T10:42:26.882Z,42.93
2022-12-26T10:43:26.837Z,40.91
2022-12-26T10:44:27.991Z,41.92
2022-12-26T10:45:26.798Z,41.67
2022-12-26T10:46:26.858Z,38.72
2022-12-26T10:47:26.785Z,42.78
2022-12-26T10:48:26.803Z,40.42
2022-12-26T10:49:26.744Z,36.34
2022-12-26T10:50:27.936Z,37.21
2022-12-26T10:51:26.725Z,36.28
2022-12-26T10:52:26.744Z,35.94
2022-12-26T10:53:26.705Z,36.61
2022-12-26T10:54:26.722Z,37.06
2022-12-26T10:55:29.612Z,39.73
2022-12-26T10:56:26.687Z,39.89
2022-12-26T10:57:26.672Z,37.55
2022-12-26T10:58:26.696Z,39.99
2022-12-26T10:59:26.691Z,36.94
2022-12-26T11:00:26.671Z,40.20
2022-12-26T11:01:26.720Z,42.84
2022-12-26T11:02:26.835Z,34.55
2022-12-26T11:03:26.730Z,38.83
2022-12-26T11:04:53.165Z,39.00
2022-12-26T11:05:56.959Z,39.33
2022-12-26T11:06:27.585Z,39.32
2022-12-26T11:07:26.615Z,39.98
2022-12-26T11:08:26.556Z,38.12
2022-12-26T11:09:26.592Z,38.85
2022-12-26T11:10:26.555Z,41.27
2022-12-26T11:11:26.572Z,37.22
2022-12-26T11:12:26.543Z,36.58
2022-12-26T11:13:26.569Z,36.03
2022-12-26T11:14:31.759Z,35.43
2022-12-26T11:15:27.574Z,35.87
2022-12-26T11:16:26.653Z,35.86
2022-12-26T11:17:26.515Z,36.62
2022-12-26T11:18:26.501Z,38.80
2022-12-26T11:19:26.475Z,39.51
2022-12-26T11:20:26.469Z,37.27
2022-12-26T11:21:26.462Z,37.56
2022-12-26T11:22:26.442Z,40.42
2022-12-26T11:23:26.452Z,37.16
2022-12-26T11:24:26.427Z,40.17
2022-12-26T11:25:26.425Z,36.05
2022-12-26T11:26:26.409Z,40.69
2022-12-26T11:27:26.415Z,39.96
2022-12-26T11:28:26.391Z,40.90
2022-12-26T11:29:26.397Z,38.25
2022-12-26T11:30:26.351Z,39.67
2022-12-26T11:31:26.443Z,39.81
2022-12-26T11:32:26.366Z,39.14
2022-12-26T11:33:26.369Z,38.24
2022-12-26T11:34:26.359Z,40.18
2022-12-26T11:35:26.391Z,39.65
2022-12-26T11:36:26.379Z,41.25
2022-12-26T11:37:26.350Z,40.81
2022-12-26T11:38:26.340Z,39.06
2022-12-26T11:39:26.383Z,40.91
2022-12-26T11:40:26.334Z,41.44
2022-12-26T11:41:26.356Z,38.97
2022-12-26T11:42:26.332Z,38.43
2022-12-26T11:43:26.338Z,38.92
2022-12-26T11:44:26.329Z,39.20
2022-12-26T11:45:26.314Z,41.09
2022-12-26T11:46:26.295Z,40.86
2022-12-26T11:47:26.335Z,40.79
2022-12-26T11:48:26.280Z,41.69
2022-12-26T11:49:26.266Z,38.69
2022-12-26T11:50:26.266Z,38.34
2022-12-26T11:51:26.262Z,37.36
2022-12-26T11:52:26.257Z,42.26
2022-12-26T11:53:26.236Z,40.19
2022-12-26T11:54:26.226Z,38.51
2022-12-26T11:55:26.252Z,38.35
2022-12-26T11:56:26.227Z,41.08
2022-12-26T11:57:26.239Z,37.97
2022-12-26T11:58:26.193Z,38.96
2022-12-26T11:59:26.191Z,42.70
2022-12-26T12:00:26.180Z,40.79
2022-12-26T12:01:26.218Z,41.36
2022-12-26T12:02:26.205Z,37.10
2022-12-26T12:03:26.177Z,40.06
2022-12-26T12:04:26.133Z,38.60
2022-12-26T12:05:26.149Z,41.95
2022-12-26T12:06:26.121Z,38.77
2022-12-26T12:07:26.085Z,40.35
2022-12-26T12:08:26.083Z,42.01
2022-12-26T12:09:26.089Z,39.50
2022-12-26T12:10:26.077Z,42.33
2022-12-26T12:11:26.072Z,40.37
2022-12-26T12:12:26.051Z,39.04
2022-12-26T12:13:26.049Z,42.79
2022-12-26T12:14:26.016Z,41.94
2022-12-26T12:15:26.065Z,40.77
2022-12-26T12:16:26.013Z,42.76
2022-12-26T12:17:26.024Z,40.98
2022-12-26T12:18:26.003Z,40.26
2022-12-26T12:19:25.986Z,41.75
2022-12-26T12:20:25.963Z,38.68
2022-12-26T12:21:25.976Z,41.01
2022-12-26T12:22:25.944Z,38.78
2022-12-26T12:23:25.919Z,41.19
2022-12-26T12:24:25.917Z,41.10
2022-12-26T12:25:25.916Z,43.66
2022-12-26T12:26:25.898Z,41.06
2022-12-26T12:27:25.901Z,39.66
2022-12-26T12:28:25.843Z,38.76
2022-12-26T12:29:25.837Z,39.48
2022-12-26T12:30:25.822Z,41.49
2022-12-26T12:31:25.856Z,40.35
2022-12-26T12:32:25.826Z,41.28
2022-12-26T12:33:25.822Z,42.25
2022-12-26T12:34:25.783Z,38.47
2022-12-26T12:35:25.791Z,39.90
2022-12-26T12:36:25.760Z,38.04
2022-12-26T12:37:25.767Z,40.13
2022-12-26T12:38:25.731Z,40.01
2022-12-26T12:39:25.773Z,39.30
2022-12-26T12:40:25.747Z,41.64
2022-12-26T12:41:25.745Z,41.74
2022-12-26T12:42:25.712Z,39.67
2022-12-26T12:43:25.723Z,41.17
2022-12-26T12:44:25.706Z,44.13
2022-12-26T12:45:25.761Z,42.10
2022-12-26T12:46:25.683Z,39.08
2022-12-26T12:47:25.679Z,38.51
2022-12-26T12:48:25.667Z,40.64
2022-12-26T12:49:25.694Z,38.60
2022-12-26T12:50:25.662Z,41.70
2022-12-26T12:51:25.668Z,37.46
2022-12-26T12:52:25.669Z,40.93
2022-12-26T12:53:25.655Z,38.26
2022-12-26T12:54:25.645Z,38.99